sensor_id;sensor_type;location;lat;lon;timestamp;temperature;humidity
65985;HTU21D;52748;51.112;5.880;2023-09-12T00:02:16;27.66;81.25
65985;HTU21D;52748;51.112;5.880;2023-09-12T00:04:42;27.64;81.35
65985;HTU21D;52748;51.112;5.880;2023-09-12T00:07:07;27.65;81.33
65985;HTU21D;52748;51.112;5.880;2023-09-12T00:09:33;27.66;81.24
65985;HTU21D;52748;51.112;5.880;2023-09-12T00:11:59;27.64;81.38
65985;HTU21D;52748;51.112;5.880;2023-09-12T00:14:25;27.65;81.33
65985;HTU21D;52748;51.112;5.880;2023-09-12T00:16:51;27.66;81.27
65985;HTU21D;52748;51.112;5.880;2023-09-12T00:19:18;27.64;81.29
65985;HTU21D;52748;51.112;5.880;2023-09-12T00:21:44;27.66;81.30
65985;HTU21D;52748;51.112;5.880;2023-09-12T00:24:09;27.65;81.28
65985;HTU21D;52748;51.112;5.880;2023-09-12T00:26:35;27.66;81.30
65985;HTU21D;52748;51.112;5.880;2023-09-12T00:29:01;27.65;81.33
65985;HTU21D;52748;51.112;5.880;2023-09-12T00:31:27;27.64;81.30
65985;HTU21D;52748;51.112;5.880;2023-09-12T00:33:53;27.61;81.49
65985;HTU21D;52748;51.112;5.880;2023-09-12T00:36:19;27.60;81.74
65985;HTU21D;52748;51.112;5.880;2023-09-12T00:38:44;27.60;81.89
65985;HTU21D;52748;51.112;5.880;2023-09-12T00:41:10;27.60;81.78
65985;HTU21D;52748;51.112;5.880;2023-09-12T00:43:36;27.61;81.67
65985;HTU21D;52748;51.112;5.880;2023-09-12T00:46:02;27.60;81.64
65985;HTU21D;52748;51.112;5.880;2023-09-12T00:48:28;27.57;81.79
65985;HTU21D;52748;51.112;5.880;2023-09-12T00:50:55;27.56;82.00
65985;HTU21D;52748;51.112;5.880;2023-09-12T00:53:21;27.56;82.13
65985;HTU21D;52748;51.112;5.880;2023-09-12T00:55:54;27.54;82.13
65985;HTU21D;52748;51.112;5.880;2023-09-12T00:58:23;27.57;82.14
65985;HTU21D;52748;51.112;5.880;2023-09-12T01:00:50;27.58;81.99
65985;HTU21D;52748;51.112;5.880;2023-09-12T01:03:16;27.57;81.88
65985;HTU21D;52748;51.112;5.880;2023-09-12T01:05:43;27.56;81.88
65985;HTU21D;52748;51.112;5.880;2023-09-12T01:08:09;27.54;82.16
65985;HTU21D;52748;51.112;5.880;2023-09-12T01:10:36;27.53;82.29
65985;HTU21D;52748;51.112;5.880;2023-09-12T01:13:02;27.55;82.13
65985;HTU21D;52748;51.112;5.880;2023-09-12T01:15:29;27.57;81.97
65985;HTU21D;52748;51.112;5.880;2023-09-12T01:17:56;27.56;81.94
65985;HTU21D;52748;51.112;5.880;2023-09-12T01:20:30;27.56;81.93
65985;HTU21D;52748;51.112;5.880;2023-09-12T01:29:12;27.55;81.93
65985;HTU21D;52748;51.112;5.880;2023-09-12T01:31:39;27.54;82.03
65985;HTU21D;52748;51.112;5.880;2023-09-12T01:34:10;27.53;82.16
65985;HTU21D;52748;51.112;5.880;2023-09-12T01:36:37;27.52;82.14
65985;HTU21D;52748;51.112;5.880;2023-09-12T01:39:03;27.51;82.23
65985;HTU21D;52748;51.112;5.880;2023-09-12T01:41:31;27.47;82.47
65985;HTU21D;52748;51.112;5.880;2023-09-12T01:43:59;27.51;82.24
65985;HTU21D;52748;51.112;5.880;2023-09-12T01:46:27;27.47;82.24
65985;HTU21D;52748;51.112;5.880;2023-09-12T01:48:55;27.46;82.25
65985;HTU21D;52748;51.112;5.880;2023-09-12T01:51:24;27.45;82.31
65985;HTU21D;52748;51.112;5.880;2023-09-12T01:53:51;27.45;82.33
65985;HTU21D;52748;51.112;5.880;2023-09-12T01:56:19;27.45;82.45
65985;HTU21D;52748;51.112;5.880;2023-09-12T01:58:45;27.45;82.41
65985;HTU21D;52748;51.112;5.880;2023-09-12T02:01:11;27.49;82.03
65985;HTU21D;52748;51.112;5.880;2023-09-12T02:03:37;27.50;81.80
65985;HTU21D;52748;51.112;5.880;2023-09-12T02:06:03;27.50;81.67
65985;HTU21D;52748;51.112;5.880;2023-09-12T02:08:29;27.50;81.78
65985;HTU21D;52748;51.112;5.880;2023-09-12T02:10:55;27.49;81.89
65985;HTU21D;52748;51.112;5.880;2023-09-12T02:13:21;27.49;81.88
65985;HTU21D;52748;51.112;5.880;2023-09-12T02:15:46;27.46;81.94
65985;HTU21D;52748;51.112;5.880;2023-09-12T02:18:12;27.47;81.91
65985;HTU21D;52748;51.112;5.880;2023-09-12T02:20:40;27.50;81.77
65985;HTU21D;52748;51.112;5.880;2023-09-12T02:23:07;27.50;81.85
65985;HTU21D;52748;51.112;5.880;2023-09-12T02:25:33;27.49;81.79
65985;HTU21D;52748;51.112;5.880;2023-09-12T02:27:58;27.50;81.81
65985;HTU21D;52748;51.112;5.880;2023-09-12T02:30:24;27.50;81.67
65985;HTU21D;52748;51.112;5.880;2023-09-12T02:32:50;27.49;81.71
65985;HTU21D;52748;51.112;5.880;2023-09-12T02:35:16;27.51;81.76
65985;HTU21D;52748;51.112;5.880;2023-09-12T02:37:42;27.50;81.64
65985;HTU21D;52748;51.112;5.880;2023-09-12T02:40:08;27.51;81.60
65985;HTU21D;52748;51.112;5.880;2023-09-12T02:42:37;27.47;81.67
65985;HTU21D;52748;51.112;5.880;2023-09-12T02:45:03;27.45;81.88
65985;HTU21D;52748;51.112;5.880;2023-09-12T02:47:30;27.46;81.93
65985;HTU21D;52748;51.112;5.880;2023-09-12T02:49:55;27.45;81.93
65985;HTU21D;52748;51.112;5.880;2023-09-12T02:52:21;27.44;81.82
65985;HTU21D;52748;51.112;5.880;2023-09-12T02:54:47;27.45;81.84
65985;HTU21D;52748;51.112;5.880;2023-09-12T02:57:13;27.43;82.04
65985;HTU21D;52748;51.112;5.880;2023-09-12T02:59:39;27.44;82.11
65985;HTU21D;52748;51.112;5.880;2023-09-12T03:02:04;27.44;81.96
65985;HTU21D;52748;51.112;5.880;2023-09-12T03:04:30;27.45;81.84
65985;HTU21D;52748;51.112;5.880;2023-09-12T03:06:56;27.43;81.91
65985;HTU21D;52748;51.112;5.880;2023-09-12T03:09:23;27.44;81.82
65985;HTU21D;52748;51.112;5.880;2023-09-12T03:11:49;27.42;81.86
65985;HTU21D;52748;51.112;5.880;2023-09-12T03:14:15;27.41;82.08
65985;HTU21D;52748;51.112;5.880;2023-09-12T03:16:42;27.40;82.10
65985;HTU21D;52748;51.112;5.880;2023-09-12T03:19:07;27.38;82.23
65985;HTU21D;52748;51.112;5.880;2023-09-12T03:21:33;27.38;82.28
65985;HTU21D;52748;51.112;5.880;2023-09-12T03:23:59;27.36;82.31
65985;HTU21D;52748;51.112;5.880;2023-09-12T03:26:25;27.38;82.14
65985;HTU21D;52748;51.112;5.880;2023-09-12T03:28:50;27.39;82.00
65985;HTU21D;52748;51.112;5.880;2023-09-12T03:31:18;27.37;82.12
65985;HTU21D;52748;51.112;5.880;2023-09-12T03:33:44;27.39;81.98
65985;HTU21D;52748;51.112;5.880;2023-09-12T03:36:16;27.40;81.82
65985;HTU21D;52748;51.112;5.880;2023-09-12T03:38:43;27.43;81.47
65985;HTU21D;52748;51.112;5.880;2023-09-12T03:41:09;27.41;81.56
65985;HTU21D;52748;51.112;5.880;2023-09-12T03:43:36;27.41;81.60
65985;HTU21D;52748;51.112;5.880;2023-09-12T03:46:03;27.40;81.66
65985;HTU21D;52748;51.112;5.880;2023-09-12T03:48:33;27.37;81.84
65985;HTU21D;52748;51.112;5.880;2023-09-12T03:50:59;27.36;82.03
65985;HTU21D;52748;51.112;5.880;2023-09-12T03:53:26;27.34;82.17
65985;HTU21D;52748;51.112;5.880;2023-09-12T03:55:53;27.35;82.17
65985;HTU21D;52748;51.112;5.880;2023-09-12T03:58:19;27.32;82.26
65985;HTU21D;52748;51.112;5.880;2023-09-12T04:00:45;27.32;82.29
65985;HTU21D;52748;51.112;5.880;2023-09-12T04:03:11;27.31;82.26
65985;HTU21D;52748;51.112;5.880;2023-09-12T04:05:37;27.35;82.22
65985;HTU21D;52748;51.112;5.880;2023-09-12T04:08:03;27.36;82.02
65985;HTU21D;52748;51.112;5.880;2023-09-12T04:10:29;27.37;81.86
65985;HTU21D;52748;51.112;5.880;2023-09-12T04:12:54;27.36;81.75
65985;HTU21D;52748;51.112;5.880;2023-09-12T04:15:20;27.35;81.84
65985;HTU21D;52748;51.112;5.880;2023-09-12T04:17:46;27.32;81.99
65985;HTU21D;52748;51.112;5.880;2023-09-12T04:20:12;27.32;82.09
65985;HTU21D;52748;51.112;5.880;2023-09-12T04:22:44;27.36;82.05
65985;HTU21D;52748;51.112;5.880;2023-09-12T04:25:10;27.32;82.29
65985;HTU21D;52748;51.112;5.880;2023-09-12T04:27:36;27.35;82.14
65985;HTU21D;52748;51.112;5.880;2023-09-12T04:30:04;27.31;82.36
65985;HTU21D;52748;51.112;5.880;2023-09-12T04:32:31;27.30;82.52
65985;HTU21D;52748;51.112;5.880;2023-09-12T04:34:58;27.31;82.55
65985;HTU21D;52748;51.112;5.880;2023-09-12T04:37:23;27.32;82.55
65985;HTU21D;52748;51.112;5.880;2023-09-12T04:39:49;27.35;82.42
65985;HTU21D;52748;51.112;5.880;2023-09-12T04:42:15;27.34;82.26
65985;HTU21D;52748;51.112;5.880;2023-09-12T04:44:41;27.35;81.85
65985;HTU21D;52748;51.112;5.880;2023-09-12T04:47:08;27.36;81.84
65985;HTU21D;52748;51.112;5.880;2023-09-12T04:49:34;27.36;81.76
65985;HTU21D;52748;51.112;5.880;2023-09-12T04:52:01;27.36;81.33
65985;HTU21D;52748;51.112;5.880;2023-09-12T04:54:26;27.34;81.67
65985;HTU21D;52748;51.112;5.880;2023-09-12T04:56:52;27.31;81.78
65985;HTU21D;52748;51.112;5.880;2023-09-12T04:59:19;27.32;81.66
65985;HTU21D;52748;51.112;5.880;2023-09-12T05:01:45;27.30;81.71
65985;HTU21D;52748;51.112;5.880;2023-09-12T05:04:11;27.29;82.01
65985;HTU21D;52748;51.112;5.880;2023-09-12T05:06:37;27.27;82.17
65985;HTU21D;52748;51.112;5.880;2023-09-12T05:09:03;27.23;80.54
65985;HTU21D;52748;51.112;5.880;2023-09-12T05:11:28;27.09;79.80
65985;HTU21D;52748;51.112;5.880;2023-09-12T05:13:54;26.93;79.72
65985;HTU21D;52748;51.112;5.880;2023-09-12T05:16:20;26.75;80.99
65985;HTU21D;52748;51.112;5.880;2023-09-12T05:18:46;26.58;81.68
65985;HTU21D;52748;51.112;5.880;2023-09-12T05:21:15;26.50;82.33
65985;HTU21D;52748;51.112;5.880;2023-09-12T05:23:40;26.38;82.27
65985;HTU21D;52748;51.112;5.880;2023-09-12T05:26:06;26.22;82.42
65985;HTU21D;52748;51.112;5.880;2023-09-12T05:28:34;26.05;83.15
65985;HTU21D;52748;51.112;5.880;2023-09-12T05:31:00;25.90;84.03
65985;HTU21D;52748;51.112;5.880;2023-09-12T05:33:25;25.76;84.54
65985;HTU21D;52748;51.112;5.880;2023-09-12T05:35:52;25.65;85.41
65985;HTU21D;52748;51.112;5.880;2023-09-12T05:38:17;25.63;85.48
65985;HTU21D;52748;51.112;5.880;2023-09-12T05:40:44;25.53;85.80
65985;HTU21D;52748;51.112;5.880;2023-09-12T05:43:09;25.48;86.51
65985;HTU21D;52748;51.112;5.880;2023-09-12T05:45:35;25.36;88.16
65985;HTU21D;52748;51.112;5.880;2023-09-12T05:48:01;25.25;89.45
65985;HTU21D;52748;51.112;5.880;2023-09-12T05:50:29;25.13;90.73
65985;HTU21D;52748;51.112;5.880;2023-09-12T05:52:54;24.98;91.95
65985;HTU21D;52748;51.112;5.880;2023-09-12T05:55:20;24.89;92.84
65985;HTU21D;52748;51.112;5.880;2023-09-12T05:57:46;24.83;93.81
65985;HTU21D;52748;51.112;5.880;2023-09-12T06:00:13;24.74;94.97
65985;HTU21D;52748;51.112;5.880;2023-09-12T06:02:42;24.64;95.96
65985;HTU21D;52748;51.112;5.880;2023-09-12T06:05:08;24.60;97.05
65985;HTU21D;52748;51.112;5.880;2023-09-12T06:07:34;24.60;97.15
65985;HTU21D;52748;51.112;5.880;2023-09-12T06:10:01;24.74;96.20
65985;HTU21D;52748;51.112;5.880;2023-09-12T06:12:27;24.91;95.50
65985;HTU21D;52748;51.112;5.880;2023-09-12T06:14:52;25.07;94.38
65985;HTU21D;52748;51.112;5.880;2023-09-12T06:17:21;25.21;93.22
65985;HTU21D;52748;51.112;5.880;2023-09-12T06:19:48;25.35;91.97
65985;HTU21D;52748;51.112;5.880;2023-09-12T06:22:17;25.50;90.76
65985;HTU21D;52748;51.112;5.880;2023-09-12T06:24:44;25.62;89.55
65985;HTU21D;52748;51.112;5.880;2023-09-12T06:27:10;25.72;88.57
65985;HTU21D;52748;51.112;5.880;2023-09-12T06:29:38;25.81;87.67
65985;HTU21D;52748;51.112;5.880;2023-09-12T06:32:04;25.90;87.12
65985;HTU21D;52748;51.112;5.880;2023-09-12T06:34:30;25.93;86.76
65985;HTU21D;52748;51.112;5.880;2023-09-12T06:36:55;25.96;86.49
65985;HTU21D;52748;51.112;5.880;2023-09-12T06:39:21;26.03;86.19
65985;HTU21D;52748;51.112;5.880;2023-09-12T06:41:48;26.06;85.77
65985;HTU21D;52748;51.112;5.880;2023-09-12T06:44:14;26.10;85.47
65985;HTU21D;52748;51.112;5.880;2023-09-12T06:46:39;26.16;85.29
65985;HTU21D;52748;51.112;5.880;2023-09-12T06:49:05;26.17;85.19
65985;HTU21D;52748;51.112;5.880;2023-09-12T06:51:31;26.22;85.20
65985;HTU21D;52748;51.112;5.880;2023-09-12T06:53:57;26.25;85.12
65985;HTU21D;52748;51.112;5.880;2023-09-12T06:56:23;26.27;84.94
65985;HTU21D;52748;51.112;5.880;2023-09-12T06:58:49;26.31;84.83
65985;HTU21D;52748;51.112;5.880;2023-09-12T07:01:15;26.32;84.72
65985;HTU21D;52748;51.112;5.880;2023-09-12T07:03:41;26.34;84.65
65985;HTU21D;52748;51.112;5.880;2023-09-12T07:06:06;26.36;84.64
65985;HTU21D;52748;51.112;5.880;2023-09-12T07:08:33;26.38;84.49
65985;HTU21D;52748;51.112;5.880;2023-09-12T07:10:59;26.38;84.52
65985;HTU21D;52748;51.112;5.880;2023-09-12T07:13:32;26.40;84.61
65985;HTU21D;52748;51.112;5.880;2023-09-12T07:15:59;26.42;84.55
65985;HTU21D;52748;51.112;5.880;2023-09-12T07:18:25;26.42;84.48
65985;HTU21D;52748;51.112;5.880;2023-09-12T07:21:01;26.46;84.50
65985;HTU21D;52748;51.112;5.880;2023-09-12T07:23:28;26.46;84.59
65985;HTU21D;52748;51.112;5.880;2023-09-12T07:25:55;26.49;84.59
65985;HTU21D;52748;51.112;5.880;2023-09-12T07:28:26;26.49;84.61
65985;HTU21D;52748;51.112;5.880;2023-09-12T07:30:52;26.49;84.81
65985;HTU21D;52748;51.112;5.880;2023-09-12T07:33:19;26.49;85.06
65985;HTU21D;52748;51.112;5.880;2023-09-12T07:35:48;26.51;85.36
65985;HTU21D;52748;51.112;5.880;2023-09-12T07:38:14;26.57;84.93
65985;HTU21D;52748;51.112;5.880;2023-09-12T07:40:43;26.56;85.09
65985;HTU21D;52748;51.112;5.880;2023-09-12T07:43:09;26.58;85.00
65985;HTU21D;52748;51.112;5.880;2023-09-12T07:45:35;26.57;84.97
65985;HTU21D;52748;51.112;5.880;2023-09-12T07:48:10;26.57;84.90
65985;HTU21D;52748;51.112;5.880;2023-09-12T07:50:37;26.58;84.95
65985;HTU21D;52748;51.112;5.880;2023-09-12T07:53:06;26.60;85.06
65985;HTU21D;52748;51.112;5.880;2023-09-12T07:55:42;26.62;85.18
65985;HTU21D;52748;51.112;5.880;2023-09-12T07:58:16;26.63;84.99
65985;HTU21D;52748;51.112;5.880;2023-09-12T08:00:47;26.66;85.06
65985;HTU21D;52748;51.112;5.880;2023-09-12T08:03:13;26.69;84.74
65985;HTU21D;52748;51.112;5.880;2023-09-12T08:05:39;26.70;84.52
65985;HTU21D;52748;51.112;5.880;2023-09-12T08:08:04;26.73;84.41
65985;HTU21D;52748;51.112;5.880;2023-09-12T08:10:30;26.73;84.32
65985;HTU21D;52748;51.112;5.880;2023-09-12T08:12:56;26.73;84.31
65985;HTU21D;52748;51.112;5.880;2023-09-12T08:15:22;26.76;84.32
65985;HTU21D;52748;51.112;5.880;2023-09-12T08:17:48;26.77;84.16
65985;HTU21D;52748;51.112;5.880;2023-09-12T08:20:18;26.75;84.23
65985;HTU21D;52748;51.112;5.880;2023-09-12T08:22:44;26.76;84.35
65985;HTU21D;52748;51.112;5.880;2023-09-12T08:25:10;26.76;84.23
65985;HTU21D;52748;51.112;5.880;2023-09-12T08:27:38;26.76;84.29
65985;HTU21D;52748;51.112;5.880;2023-09-12T08:30:04;26.77;83.90
65985;HTU21D;52748;51.112;5.880;2023-09-12T08:32:30;26.76;83.65
65985;HTU21D;52748;51.112;5.880;2023-09-12T08:34:55;26.75;83.87
65985;HTU21D;52748;51.112;5.880;2023-09-12T08:37:21;26.73;83.78
65985;HTU21D;52748;51.112;5.880;2023-09-12T08:39:47;26.75;83.30
65985;HTU21D;52748;51.112;5.880;2023-09-12T08:42:15;26.76;82.58
65985;HTU21D;52748;51.112;5.880;2023-09-12T08:44:42;26.78;81.73
65985;HTU21D;52748;51.112;5.880;2023-09-12T08:47:09;26.80;81.17
65985;HTU21D;52748;51.112;5.880;2023-09-12T08:49:36;26.80;80.92
65985;HTU21D;52748;51.112;5.880;2023-09-12T08:52:05;26.81;80.72
65985;HTU21D;52748;51.112;5.880;2023-09-12T08:54:32;26.84;80.62
65985;HTU21D;52748;51.112;5.880;2023-09-12T08:57:02;26.84;80.59
65985;HTU21D;52748;51.112;5.880;2023-09-12T08:59:31;26.85;80.72
65985;HTU21D;52748;51.112;5.880;2023-09-12T09:01:58;26.85;80.78
65985;HTU21D;52748;51.112;5.880;2023-09-12T09:04:25;26.84;80.82
65985;HTU21D;52748;51.112;5.880;2023-09-12T09:06:57;26.82;80.63
65985;HTU21D;52748;51.112;5.880;2023-09-12T09:09:23;26.83;79.91
65985;HTU21D;52748;51.112;5.880;2023-09-12T09:11:54;26.84;79.72
65985;HTU21D;52748;51.112;5.880;2023-09-12T09:14:20;26.85;79.82
65985;HTU21D;52748;51.112;5.880;2023-09-12T09:16:46;26.84;80.13
65985;HTU21D;52748;51.112;5.880;2023-09-12T09:19:11;26.83;80.30
65985;HTU21D;52748;51.112;5.880;2023-09-12T09:21:38;26.83;80.30
65985;HTU21D;52748;51.112;5.880;2023-09-12T09:24:08;26.85;80.27
65985;HTU21D;52748;51.112;5.880;2023-09-12T09:26:48;26.89;79.99
65985;HTU21D;52748;51.112;5.880;2023-09-12T09:29:20;26.92;79.96
65985;HTU21D;52748;51.112;5.880;2023-09-12T09:31:48;26.89;80.34
65985;HTU21D;52748;51.112;5.880;2023-09-12T09:34:15;26.89;80.53
65985;HTU21D;52748;51.112;5.880;2023-09-12T09:36:52;26.87;80.70
65985;HTU21D;52748;51.112;5.880;2023-09-12T09:39:23;26.90;80.81
65985;HTU21D;52748;51.112;5.880;2023-09-12T09:41:52;26.89;80.63
65985;HTU21D;52748;51.112;5.880;2023-09-12T09:44:18;26.91;80.37
65985;HTU21D;52748;51.112;5.880;2023-09-12T09:46:50;26.93;79.21
65985;HTU21D;52748;51.112;5.880;2023-09-12T09:49:19;26.92;78.98
65985;HTU21D;52748;51.112;5.880;2023-09-12T09:51:45;26.95;78.97
65985;HTU21D;52748;51.112;5.880;2023-09-12T09:54:12;26.97;79.03
65985;HTU21D;52748;51.112;5.880;2023-09-12T09:56:49;26.97;79.13
65985;HTU21D;52748;51.112;5.880;2023-09-12T09:59:17;26.96;79.12
65985;HTU21D;52748;51.112;5.880;2023-09-12T10:01:45;26.95;79.21
65985;HTU21D;52748;51.112;5.880;2023-09-12T10:04:12;26.97;79.01
65985;HTU21D;52748;51.112;5.880;2023-09-12T10:06:38;27.00;78.59
65985;HTU21D;52748;51.112;5.880;2023-09-12T10:09:16;26.97;78.54
65985;HTU21D;52748;51.112;5.880;2023-09-12T10:11:47;26.97;78.63
65985;HTU21D;52748;51.112;5.880;2023-09-12T10:14:15;26.99;78.61
65985;HTU21D;52748;51.112;5.880;2023-09-12T10:16:50;26.98;78.67
65985;HTU21D;52748;51.112;5.880;2023-09-12T10:19:23;27.01;78.55
65985;HTU21D;52748;51.112;5.880;2023-09-12T10:21:59;27.02;78.34
65985;HTU21D;52748;51.112;5.880;2023-09-12T10:24:29;27.04;78.42
65985;HTU21D;52748;51.112;5.880;2023-09-12T10:26:57;27.02;78.66
65985;HTU21D;52748;51.112;5.880;2023-09-12T10:29:24;27.02;78.82
65985;HTU21D;52748;51.112;5.880;2023-09-12T10:31:49;27.04;78.85
65985;HTU21D;52748;51.112;5.880;2023-09-12T10:34:16;27.07;78.71
65985;HTU21D;52748;51.112;5.880;2023-09-12T10:36:43;27.09;78.53
65985;HTU21D;52748;51.112;5.880;2023-09-12T10:39:11;27.07;78.68
65985;HTU21D;52748;51.112;5.880;2023-09-12T10:41:39;27.09;78.58
65985;HTU21D;52748;51.112;5.880;2023-09-12T10:44:11;27.10;78.56
65985;HTU21D;52748;51.112;5.880;2023-09-12T10:46:41;27.07;78.73
65985;HTU21D;52748;51.112;5.880;2023-09-12T10:49:09;27.07;78.83
65985;HTU21D;52748;51.112;5.880;2023-09-12T10:51:44;27.06;78.95
65985;HTU21D;52748;51.112;5.880;2023-09-12T10:54:16;27.05;78.94
65985;HTU21D;52748;51.112;5.880;2023-09-12T10:57:02;27.05;78.87
65985;HTU21D;52748;51.112;5.880;2023-09-12T10:59:29;27.07;78.75
65985;HTU21D;52748;51.112;5.880;2023-09-12T11:02:27;27.10;78.59
65985;HTU21D;52748;51.112;5.880;2023-09-12T11:04:53;27.12;78.40
65985;HTU21D;52748;51.112;5.880;2023-09-12T11:12:41;27.12;78.33
65985;HTU21D;52748;51.112;5.880;2023-09-12T11:15:09;27.10;78.50
65985;HTU21D;52748;51.112;5.880;2023-09-12T11:17:44;27.09;78.53
65985;HTU21D;52748;51.112;5.880;2023-09-12T11:20:12;27.10;78.37
65985;HTU21D;52748;51.112;5.880;2023-09-12T11:22:43;27.12;78.10
65985;HTU21D;52748;51.112;5.880;2023-09-12T11:25:21;27.12;78.08
65985;HTU21D;52748;51.112;5.880;2023-09-12T11:30:21;27.10;79.66
65985;HTU21D;52748;51.112;5.880;2023-09-12T11:32:49;27.10;80.49
65985;HTU21D;52748;51.112;5.880;2023-09-12T11:35:17;27.10;81.00
65985;HTU21D;52748;51.112;5.880;2023-09-12T11:37:55;27.19;80.67
65985;HTU21D;52748;51.112;5.880;2023-09-12T11:42:58;27.16;80.59
65985;HTU21D;52748;51.112;5.880;2023-09-12T11:45:25;27.17;80.65
65985;HTU21D;52748;51.112;5.880;2023-09-12T11:47:52;27.17;80.86
65985;HTU21D;52748;51.112;5.880;2023-09-12T11:50:35;27.20;80.82
65985;HTU21D;52748;51.112;5.880;2023-09-12T11:53:04;27.19;80.94
65985;HTU21D;52748;51.112;5.880;2023-09-12T11:55:32;27.17;81.34
65985;HTU21D;52748;51.112;5.880;2023-09-12T11:57:58;27.17;81.12
65985;HTU21D;52748;51.112;5.880;2023-09-12T12:00:24;27.20;80.72
65985;HTU21D;52748;51.112;5.880;2023-09-12T12:02:53;27.20;80.43
65985;HTU21D;52748;51.112;5.880;2023-09-12T12:05:19;27.16;80.41
65985;HTU21D;52748;51.112;5.880;2023-09-12T12:07:46;27.19;80.36
65985;HTU21D;52748;51.112;5.880;2023-09-12T12:10:13;27.21;80.20
65985;HTU21D;52748;51.112;5.880;2023-09-12T12:12:39;27.20;80.18
65985;HTU21D;52748;51.112;5.880;2023-09-12T12:15:10;27.19;80.30
65985;HTU21D;52748;51.112;5.880;2023-09-12T12:17:42;27.22;80.12
65985;HTU21D;52748;51.112;5.880;2023-09-12T12:20:09;27.22;80.16
65985;HTU21D;52748;51.112;5.880;2023-09-12T12:22:40;27.21;80.16
65985;HTU21D;52748;51.112;5.880;2023-09-12T12:25:10;27.24;79.92
65985;HTU21D;52748;51.112;5.880;2023-09-12T12:27:41;27.25;79.63
65985;HTU21D;52748;51.112;5.880;2023-09-12T12:30:09;27.28;79.52
65985;HTU21D;52748;51.112;5.880;2023-09-12T12:32:45;27.29;79.52
65985;HTU21D;52748;51.112;5.880;2023-09-12T12:35:22;27.31;79.56
65985;HTU21D;52748;51.112;5.880;2023-09-12T12:37:54;27.31;79.49
65985;HTU21D;52748;51.112;5.880;2023-09-12T12:40:21;27.30;79.78
65985;HTU21D;52748;51.112;5.880;2023-09-12T12:42:48;27.30;79.93
65985;HTU21D;52748;51.112;5.880;2023-09-12T12:45:16;27.30;80.04
65985;HTU21D;52748;51.112;5.880;2023-09-12T12:47:43;27.30;80.14
65985;HTU21D;52748;51.112;5.880;2023-09-12T12:50:15;27.31;79.85
65985;HTU21D;52748;51.112;5.880;2023-09-12T12:52:42;27.30;79.71
65985;HTU21D;52748;51.112;5.880;2023-09-12T12:55:12;27.29;79.60
65985;HTU21D;52748;51.112;5.880;2023-09-12T12:57:44;27.30;79.64
65985;HTU21D;52748;51.112;5.880;2023-09-12T13:00:12;27.29;79.78
65985;HTU21D;52748;51.112;5.880;2023-09-12T13:02:43;27.28;80.04
65985;HTU21D;52748;51.112;5.880;2023-09-12T13:05:27;27.31;80.17
65985;HTU21D;52748;51.112;5.880;2023-09-12T13:07:54;27.30;79.91
65985;HTU21D;52748;51.112;5.880;2023-09-12T13:10:21;27.31;79.30
65985;HTU21D;52748;51.112;5.880;2023-09-12T13:12:48;27.29;78.60
65985;HTU21D;52748;51.112;5.880;2023-09-12T13:15:15;27.30;78.25
65985;HTU21D;52748;51.112;5.880;2023-09-12T13:17:43;27.35;77.83
65985;HTU21D;52748;51.112;5.880;2023-09-12T13:20:10;27.32;77.56
65985;HTU21D;52748;51.112;5.880;2023-09-12T13:22:36;27.32;77.56
65985;HTU21D;52748;51.112;5.880;2023-09-12T13:25:02;27.32;77.26
65985;HTU21D;52748;51.112;5.880;2023-09-12T13:27:28;27.36;77.23
65985;HTU21D;52748;51.112;5.880;2023-09-12T13:29:55;27.36;77.11
65985;HTU21D;52748;51.112;5.880;2023-09-12T13:32:21;27.37;76.91
65985;HTU21D;52748;51.112;5.880;2023-09-12T13:34:46;27.38;77.31
65985;HTU21D;52748;51.112;5.880;2023-09-12T13:37:12;27.38;77.40
65985;HTU21D;52748;51.112;5.880;2023-09-12T13:39:38;27.40;77.39
65985;HTU21D;52748;51.112;5.880;2023-09-12T13:42:06;27.37;77.55
65985;HTU21D;52748;51.112;5.880;2023-09-12T13:44:35;27.36;77.69
65985;HTU21D;52748;51.112;5.880;2023-09-12T13:47:01;27.35;77.85
65985;HTU21D;52748;51.112;5.880;2023-09-12T13:49:26;27.36;77.89
65985;HTU21D;52748;51.112;5.880;2023-09-12T13:51:52;27.34;77.89
65985;HTU21D;52748;51.112;5.880;2023-09-12T13:54:18;27.32;77.91
65985;HTU21D;52748;51.112;5.880;2023-09-12T13:56:44;27.30;78.05
65985;HTU21D;52748;51.112;5.880;2023-09-12T13:59:10;27.31;78.00
65985;HTU21D;52748;51.112;5.880;2023-09-12T14:01:35;27.34;77.98
65985;HTU21D;52748;51.112;5.880;2023-09-12T14:04:02;27.29;78.12
65985;HTU21D;52748;51.112;5.880;2023-09-12T14:06:29;27.28;78.22
65985;HTU21D;52748;51.112;5.880;2023-09-12T14:08:54;27.27;78.33
65985;HTU21D;52748;51.112;5.880;2023-09-12T14:11:20;27.30;78.05
65985;HTU21D;52748;51.112;5.880;2023-09-12T14:13:46;27.31;77.82
65985;HTU21D;52748;51.112;5.880;2023-09-12T14:16:13;27.30;77.84
65985;HTU21D;52748;51.112;5.880;2023-09-12T14:18:38;27.30;77.98
65985;HTU21D;52748;51.112;5.880;2023-09-12T14:21:04;27.29;78.10
65985;HTU21D;52748;51.112;5.880;2023-09-12T14:23:30;27.34;77.85
65985;HTU21D;52748;51.112;5.880;2023-09-12T14:25:56;27.35;77.57
65985;HTU21D;52748;51.112;5.880;2023-09-12T14:28:22;27.36;77.36
65985;HTU21D;52748;51.112;5.880;2023-09-12T14:30:48;27.38;77.28
65985;HTU21D;52748;51.112;5.880;2023-09-12T14:33:15;27.39;77.14
65985;HTU21D;52748;51.112;5.880;2023-09-12T14:35:43;27.39;77.02
65985;HTU21D;52748;51.112;5.880;2023-09-12T14:38:09;27.39;77.34
65985;HTU21D;52748;51.112;5.880;2023-09-12T14:40:35;27.39;77.18
65985;HTU21D;52748;51.112;5.880;2023-09-12T14:43:01;27.34;75.65
65985;HTU21D;52748;51.112;5.880;2023-09-12T14:45:28;27.31;74.89
65985;HTU21D;52748;51.112;5.880;2023-09-12T14:47:54;27.30;73.85
65985;HTU21D;52748;51.112;5.880;2023-09-12T14:50:21;27.34;72.74
65985;HTU21D;52748;51.112;5.880;2023-09-12T14:52:50;27.34;73.03
65985;HTU21D;52748;51.112;5.880;2023-09-12T14:55:16;27.32;72.92
65985;HTU21D;52748;51.112;5.880;2023-09-12T14:57:42;27.34;72.98
65985;HTU21D;52748;51.112;5.880;2023-09-12T15:00:13;27.35;73.06
65985;HTU21D;52748;51.112;5.880;2023-09-12T15:02:44;27.36;72.64
65985;HTU21D;52748;51.112;5.880;2023-09-12T15:05:10;27.36;72.54
65985;HTU21D;52748;51.112;5.880;2023-09-12T15:07:40;27.38;72.68
65985;HTU21D;52748;51.112;5.880;2023-09-12T15:10:09;27.40;72.72
65985;HTU21D;52748;51.112;5.880;2023-09-12T15:12:36;27.37;72.86
65985;HTU21D;52748;51.112;5.880;2023-09-12T15:15:09;27.35;72.70
65985;HTU21D;52748;51.112;5.880;2023-09-12T15:17:36;27.36;72.67
65985;HTU21D;52748;51.112;5.880;2023-09-12T15:20:03;27.38;72.38
65985;HTU21D;52748;51.112;5.880;2023-09-12T15:22:34;27.35;71.58
65985;HTU21D;52748;51.112;5.880;2023-09-12T15:25:14;27.34;70.91
65985;HTU21D;52748;51.112;5.880;2023-09-12T15:27:40;27.32;70.19
65985;HTU21D;52748;51.112;5.880;2023-09-12T15:30:09;27.36;70.32
65985;HTU21D;52748;51.112;5.880;2023-09-12T15:33:11;27.32;70.78
65985;HTU21D;52748;51.112;5.880;2023-09-12T15:35:37;27.32;71.31